createdAt,value
2018-07-11T00:01:11.058Z,9.50
2018-07-11T00:03:46.909Z,9.50
2018-07-11T00:06:16.756Z,9.50
2018-07-11T00:08:45.239Z,9.50
2018-07-11T00:11:13.931Z,9.40
2018-07-11T00:13:44.511Z,9.40
2018-07-11T00:16:13.606Z,9.40
2018-07-11T00:18:42.128Z,9.30
2018-07-11T00:21:10.695Z,9.30
2018-07-11T00:23:39.404Z,9.20
2018-07-11T00:26:09.058Z,9.20
2018-07-11T00:28:37.570Z,9.20
2018-07-11T00:31:06.606Z,9.10
2018-07-11T00:33:35.190Z,9.10
2018-07-11T00:36:03.771Z,9.10
2018-07-11T00:38:32.372Z,9.10
2018-07-11T00:41:01.489Z,9.10
2018-07-11T00:43:31.886Z,9.10
2018-07-11T00:46:00.956Z,9.10
2018-07-11T00:48:29.521Z,9.00
2018-07-11T00:50:58.367Z,9.00
2018-07-11T00:53:29.185Z,9.00
2018-07-11T00:55:58.327Z,9.00
2018-07-11T00:58:30.035Z,8.90
2018-07-11T01:01:07.881Z,8.90
2018-07-11T01:03:40.302Z,8.80
2018-07-11T01:06:08.971Z,8.70
2018-07-11T01:08:39.034Z,8.70
2018-07-11T01:11:11.281Z,8.70
2018-07-11T01:13:40.980Z,8.70
2018-07-11T01:16:09.573Z,8.80
2018-07-11T01:18:43.226Z,8.70
2018-07-11T01:21:11.786Z,8.70
2018-07-11T01:23:40.290Z,8.60
2018-07-11T01:26:08.834Z,8.60
2018-07-11T01:28:37.379Z,8.60
2018-07-11T01:31:05.931Z,8.50
2018-07-11T01:33:34.404Z,8.50
2018-07-11T01:36:02.911Z,8.50
2018-07-11T01:38:31.394Z,8.50
2018-07-11T01:40:59.923Z,8.50
2018-07-11T01:43:28.385Z,8.60
2018-07-11T01:45:56.968Z,8.60
2018-07-11T01:48:25.483Z,8.70
2018-07-11T01:50:54.378Z,8.60
2018-07-11T01:53:22.925Z,8.60
2018-07-11T01:55:51.454Z,8.50
2018-07-11T01:58:20.000Z,8.50
2018-07-11T02:00:48.603Z,8.40
2018-07-11T02:03:17.140Z,8.40
2018-07-11T02:05:45.751Z,8.40
2018-07-11T02:08:14.273Z,8.30
2018-07-11T02:10:42.879Z,8.30
2018-07-11T02:13:11.452Z,8.30
2018-07-11T02:15:39.966Z,8.30
2018-07-11T02:18:08.538Z,8.30
2018-07-11T02:20:37.094Z,8.30
2018-07-11T02:23:05.638Z,8.30
2018-07-11T02:25:34.175Z,8.30
2018-07-11T02:28:02.751Z,8.30
2018-07-11T02:30:31.266Z,8.30
2018-07-11T02:32:59.831Z,8.30
2018-07-11T02:35:28.340Z,8.20
2018-07-11T02:37:56.851Z,8.30
2018-07-11T02:45:21.752Z,8.30
2018-07-11T02:47:50.314Z,8.30
2018-07-11T02:50:18.855Z,8.30
2018-07-11T02:52:47.322Z,8.30
2018-07-11T02:55:15.853Z,8.20
2018-07-11T02:57:44.354Z,8.20
2018-07-11T03:00:12.822Z,8.10
2018-07-11T03:02:41.382Z,8.10
2018-07-11T03:05:09.908Z,8.00
2018-07-11T03:07:38.491Z,8.00
2018-07-11T03:10:07.020Z,8.00
2018-07-11T03:12:35.546Z,7.90
2018-07-11T03:15:04.106Z,7.90
2018-07-11T03:17:32.646Z,7.80
2018-07-11T03:20:01.125Z,7.80
2018-07-11T03:22:29.645Z,7.80
2018-07-11T03:24:58.101Z,7.70
2018-07-11T03:27:26.670Z,7.80
2018-07-11T03:29:55.180Z,7.70
2018-07-11T03:32:23.763Z,7.70
2018-07-11T03:34:52.311Z,7.70
2018-07-11T03:37:20.846Z,7.70
2018-07-11T03:39:49.378Z,7.70
2018-07-11T03:42:17.919Z,7.60
2018-07-11T03:44:46.432Z,7.60
2018-07-11T03:47:14.926Z,7.70
2018-07-11T03:49:43.412Z,7.70
2018-07-11T03:52:11.919Z,7.70
2018-07-11T03:54:40.394Z,7.80
2018-07-11T03:57:08.934Z,7.80
2018-07-11T03:59:37.386Z,7.90
2018-07-11T04:02:06.321Z,7.90
2018-07-11T04:04:34.783Z,8.00
2018-07-11T04:07:03.307Z,8.10
2018-07-11T04:09:31.750Z,8.10
2018-07-11T04:12:00.205Z,8.20
2018-07-11T04:14:28.686Z,8.30
2018-07-11T04:16:57.179Z,8.30
2018-07-11T04:19:25.660Z,8.40
2018-07-11T04:21:54.121Z,8.40
2018-07-11T04:24:22.698Z,8.50
2018-07-11T04:26:51.255Z,8.50
2018-07-11T04:29:19.855Z,8.60
2018-07-11T04:31:48.395Z,8.60
2018-07-11T04:34:16.951Z,8.70
2018-07-11T04:36:45.518Z,8.80
2018-07-11T04:39:14.043Z,8.90
2018-07-11T04:41:42.547Z,9.00
2018-07-11T04:44:11.503Z,9.10
2018-07-11T04:46:40.066Z,9.30
2018-07-11T04:49:09.223Z,9.40
2018-07-11T04:51:37.759Z,9.60
2018-07-11T04:54:06.298Z,9.70
2018-07-11T04:56:34.934Z,9.80
2018-07-11T04:59:03.501Z,9.90
2018-07-11T05:01:31.992Z,10.00
2018-07-11T05:04:00.563Z,10.00
2018-07-11T05:06:29.040Z,10.10
2018-07-11T05:11:25.725Z,10.10
2018-07-11T05:13:54.274Z,10.10
2018-07-11T05:16:22.730Z,10.10
2018-07-11T05:18:51.219Z,10.30
2018-07-11T05:21:19.796Z,10.60
2018-07-11T05:23:48.295Z,10.90
2018-07-11T05:26:16.764Z,11.00
2018-07-11T05:28:45.266Z,11.10
2018-07-11T05:31:13.751Z,11.50
2018-07-11T05:36:10.383Z,11.40
2018-07-11T05:38:38.852Z,11.50
2018-07-11T05:41:07.402Z,11.80
2018-07-11T05:43:35.878Z,11.90
2018-07-11T05:46:04.346Z,12.10
2018-07-11T05:48:33.159Z,12.30
2018-07-11T05:51:01.788Z,12.50
2018-07-11T05:53:30.263Z,12.70
2018-07-11T05:55:58.793Z,12.90
2018-07-11T05:58:27.279Z,13.10
2018-07-11T06:00:55.774Z,13.20
2018-07-11T06:03:24.270Z,13.40
2018-07-11T06:05:52.774Z,13.60
2018-07-11T06:08:21.217Z,14.30
2018-07-11T06:10:49.734Z,14.90
2018-07-11T06:13:18.183Z,15.50
2018-07-11T06:15:46.722Z,16.00
2018-07-11T06:18:15.194Z,16.00
2018-07-11T06:20:43.663Z,15.90
2018-07-11T06:23:12.128Z,16.20
2018-07-11T06:25:40.618Z,16.60
2018-07-11T06:28:09.125Z,16.90
2018-07-11T06:30:37.574Z,17.30
2018-07-11T06:33:06.067Z,17.70
2018-07-11T06:35:34.555Z,18.20
2018-07-11T06:38:03.006Z,18.80
2018-07-11T06:40:31.518Z,19.10
2018-07-11T06:42:59.969Z,18.50
2018-07-11T06:45:28.936Z,17.80
2018-07-11T06:47:57.880Z,17.90
2018-07-11T06:50:27.565Z,18.30
2018-07-11T06:52:58.864Z,18.30
2018-07-11T06:55:27.459Z,18.00
2018-07-11T06:57:56.103Z,17.90
2018-07-11T07:00:24.773Z,17.60
2018-07-11T07:02:53.406Z,17.30
2018-07-11T07:05:21.947Z,16.90
2018-07-11T07:07:50.628Z,16.90
2018-07-11T07:10:19.338Z,17.00
2018-07-11T07:12:48.102Z,17.30
2018-07-11T07:15:16.795Z,17.20
2018-07-11T07:17:45.360Z,17.00
2018-07-11T07:20:13.906Z,16.90
2018-07-11T07:22:42.672Z,16.90
2018-07-11T07:25:11.254Z,16.80
2018-07-11T07:27:39.789Z,16.90
2018-07-11T07:30:08.766Z,16.90
2018-07-11T07:32:37.247Z,17.00
2018-07-11T07:35:05.804Z,16.90
2018-07-11T07:37:34.295Z,17.00
2018-07-11T07:40:02.799Z,17.10
2018-07-11T07:42:31.380Z,17.30
2018-07-11T07:44:59.972Z,17.20
2018-07-11T07:47:34.405Z,17.30
2018-07-11T07:50:02.978Z,17.70
2018-07-11T07:52:31.556Z,17.80
2018-07-11T07:55:00.158Z,18.30
2018-07-11T07:57:29.079Z,18.80
2018-07-11T07:59:58.070Z,19.70
2018-07-11T08:02:26.770Z,19.80
2018-07-11T08:04:55.952Z,19.90
2018-07-11T08:07:24.605Z,19.70
2018-07-11T08:09:53.159Z,19.20
2018-07-11T08:12:21.656Z,18.80
2018-07-11T08:17:18.307Z,18.00
2018-07-11T08:19:46.788Z,18.10
2018-07-11T08:22:26.546Z,18.10
2018-07-11T08:25:06.298Z,18.30
2018-07-11T08:27:45.777Z,18.70
2018-07-11T08:32:30.066Z,18.90
2018-07-11T08:35:08.279Z,18.80
2018-07-11T08:37:57.429Z,18.50
2018-07-11T08:42:47.418Z,18.80
2018-07-11T08:45:26.887Z,19.30
2018-07-11T08:50:12.435Z,19.00
2018-07-11T08:52:54.028Z,18.80
2018-07-11T08:56:25.878Z,18.90
2018-07-11T09:01:12.100Z,18.60
2018-07-11T09:04:23.088Z,18.50
2018-07-11T09:07:06.887Z,18.80
2018-07-11T09:09:51.916Z,18.70
2018-07-11T09:14:38.410Z,18.10
2018-07-11T09:18:20.147Z,18.20
2018-07-11T09:20:58.564Z,17.70
2018-07-11T09:23:36.245Z,17.50
2018-07-11T09:26:05.034Z,17.50
2018-07-11T09:31:01.840Z,17.30
2018-07-11T09:33:30.457Z,17.10
2018-07-11T09:35:58.994Z,17.30
2018-07-11T09:38:27.492Z,17.70
2018-07-11T09:40:56.128Z,18.00
2018-07-11T09:43:24.687Z,17.80
2018-07-11T09:45:53.380Z,17.70
2018-07-11T09:48:21.923Z,17.60
2018-07-11T09:50:50.708Z,17.70
2018-07-11T09:53:19.294Z,18.10
2018-07-11T09:55:47.882Z,18.60
2018-07-11T09:58:16.510Z,18.90
2018-07-11T10:00:50.540Z,19.30
2018-07-11T10:03:19.632Z,19.50
2018-07-11T10:05:48.235Z,19.70
2018-07-11T10:08:16.833Z,20.50
2018-07-11T10:10:45.342Z,20.70
2018-07-11T10:13:13.881Z,21.60
2018-07-11T10:15:42.458Z,21.60
2018-07-11T10:18:10.981Z,21.70
2018-07-11T10:20:39.546Z,21.90
2018-07-11T10:23:08.496Z,21.30
2018-07-11T10:25:37.062Z,22.00
2018-07-11T10:28:14.848Z,22.30
2018-07-11T10:30:43.394Z,22.30
2018-07-11T10:33:12.658Z,23.70
2018-07-11T10:35:41.599Z,25.00
2018-07-11T10:38:10.867Z,24.30
2018-07-11T10:40:39.510Z,25.20
2018-07-11T10:43:08.546Z,24.60
2018-07-11T10:45:37.305Z,23.30
2018-07-11T10:48:05.767Z,23.10
2018-07-11T10:50:34.326Z,23.10
2018-07-11T10:53:02.789Z,24.10
2018-07-11T10:55:31.303Z,24.50
2018-07-11T10:57:59.776Z,24.80
2018-07-11T11:00:36.655Z,24.40
2018-07-11T11:02:58.517Z,25.20
2018-07-11T11:05:27.022Z,24.50
2018-07-11T11:07:55.581Z,24.60
2018-07-11T11:10:24.058Z,23.30
2018-07-11T11:12:52.564Z,23.00
2018-07-11T11:15:21.124Z,23.30
2018-07-11T11:17:49.634Z,24.00
2018-07-11T11:20:18.219Z,24.40
2018-07-11T11:22:46.687Z,24.00
2018-07-11T11:25:15.203Z,23.80
2018-07-11T11:27:43.716Z,23.80
2018-07-11T11:30:12.231Z,22.90
2018-07-11T11:32:41.108Z,23.10
2018-07-11T11:35:09.599Z,23.50
2018-07-11T11:37:38.106Z,23.10
2018-07-11T11:40:06.661Z,23.50
2018-07-11T11:42:35.463Z,23.30
2018-07-11T11:45:03.725Z,22.70
2018-07-11T11:47:32.178Z,22.30
2018-07-11T11:50:00.695Z,22.50
2018-07-11T11:52:29.212Z,22.40
2018-07-11T11:54:57.741Z,21.80
2018-07-11T11:57:26.233Z,21.60
2018-07-11T11:59:54.734Z,21.50
2018-07-11T12:02:23.336Z,21.30
2018-07-11T12:04:51.858Z,21.30
2018-07-11T12:07:20.376Z,21.50
2018-07-11T12:09:48.946Z,22.10
2018-07-11T12:12:17.409Z,22.30
2018-07-11T12:14:45.926Z,23.00
2018-07-11T12:17:14.386Z,23.30
2018-07-11T12:19:44.581Z,24.00
2018-07-11T12:22:20.198Z,23.80
2018-07-11T12:24:48.970Z,22.60
2018-07-11T12:27:17.782Z,22.30
2018-07-11T12:29:46.434Z,22.10
2018-07-11T12:32:14.924Z,22.30
2018-07-11T12:34:43.464Z,22.50
2018-07-11T12:37:12.099Z,22.40
2018-07-11T12:39:40.699Z,21.70
2018-07-11T12:42:09.230Z,21.10
2018-07-11T12:44:37.734Z,20.80
2018-07-11T12:47:11.530Z,20.80
2018-07-11T12:49:40.050Z,20.90
2018-07-11T12:52:08.602Z,21.00
2018-07-11T12:54:37.102Z,21.10
2018-07-11T12:57:06.051Z,20.90
2018-07-11T12:59:34.586Z,20.60
2018-07-11T13:02:03.230Z,20.70
2018-07-11T13:04:32.321Z,20.90
2018-07-11T13:07:01.025Z,21.20
2018-07-11T13:09:29.573Z,21.50
2018-07-11T13:11:58.074Z,21.90
2018-07-11T13:14:26.546Z,22.10
2018-07-11T13:16:55.104Z,21.70
2018-07-11T13:19:23.582Z,21.70
2018-07-11T13:21:52.217Z,21.90
2018-07-11T13:24:20.687Z,21.40
2018-07-11T13:26:49.269Z,21.00
2018-07-11T13:29:17.742Z,20.70
2018-07-11T13:31:46.290Z,20.60
2018-07-11T13:34:14.879Z,20.30
2018-07-11T13:36:43.383Z,20.20
2018-07-11T13:39:21.966Z,20.20
2018-07-11T13:41:51.174Z,20.10
2018-07-11T13:44:19.778Z,20.40
2018-07-11T13:46:48.522Z,20.20
2018-07-11T13:51:45.226Z,20.30
2018-07-11T13:54:13.727Z,20.00
2018-07-11T13:56:42.325Z,20.30
2018-07-11T14:01:39.052Z,20.10
2018-07-11T14:04:07.602Z,19.90
2018-07-11T14:06:36.986Z,19.90
2018-07-11T14:09:05.960Z,19.90
2018-07-11T14:11:34.522Z,19.80
2018-07-11T14:14:03.022Z,19.90
2018-07-11T14:16:31.611Z,19.90
2018-07-11T14:19:00.080Z,20.10
2018-07-11T14:21:28.826Z,20.20
2018-07-11T14:23:57.338Z,20.50
2018-07-11T14:26:26.391Z,21.00
2018-07-11T14:28:54.991Z,21.30
2018-07-11T14:31:34.823Z,21.30
2018-07-11T14:34:06.764Z,21.40
2018-07-11T14:36:35.858Z,21.00
2018-07-11T14:39:05.783Z,20.70
2018-07-11T14:41:34.424Z,20.60
2018-07-11T14:44:03.179Z,20.40
2018-07-11T14:46:31.982Z,20.30
2018-07-11T14:49:00.935Z,20.20
2018-07-11T14:51:29.577Z,20.30
2018-07-11T14:53:58.334Z,20.00
2018-07-11T14:56:26.910Z,19.90
2018-07-11T14:58:57.754Z,19.50
2018-07-11T15:01:26.313Z,19.30
2018-07-11T15:03:55.230Z,19.20
2018-07-11T15:06:24.580Z,19.30
2018-07-11T15:08:54.517Z,19.40
2018-07-11T15:11:23.606Z,19.30
2018-07-11T15:13:52.505Z,19.40
2018-07-11T15:16:21.359Z,19.50
2018-07-11T15:18:50.488Z,19.70
2018-07-11T15:21:18.970Z,20.00
2018-07-11T15:23:47.502Z,20.30
2018-07-11T15:26:16.047Z,20.60
2018-07-11T15:28:44.605Z,21.10
2018-07-11T15:31:13.198Z,21.00
2018-07-11T15:33:41.824Z,21.00
2018-07-11T15:36:10.295Z,21.10
2018-07-11T15:38:38.845Z,21.30
2018-07-11T15:41:07.634Z,21.20
2018-07-11T15:43:36.189Z,21.10
2018-07-11T15:46:04.752Z,21.00
2018-07-11T15:48:33.890Z,20.90
2018-07-11T15:51:03.485Z,20.70
2018-07-11T15:53:32.056Z,20.50
2018-07-11T15:56:00.587Z,20.20
2018-07-11T15:58:31.204Z,20.20
2018-07-11T16:01:04.898Z,20.30
2018-07-11T16:03:36.478Z,20.40
2018-07-11T16:06:05.033Z,20.10
2018-07-11T16:08:33.664Z,20.10
2018-07-11T16:11:03.909Z,20.10
2018-07-11T16:13:32.935Z,20.00
2018-07-11T16:16:01.433Z,20.00
2018-07-11T16:18:29.958Z,20.20
2018-07-11T16:20:58.482Z,20.00
2018-07-11T16:23:27.047Z,20.10
2018-07-11T16:25:55.558Z,20.00
2018-07-11T16:28:24.115Z,20.10
2018-07-11T16:30:52.588Z,20.20
2018-07-11T16:33:21.136Z,20.00
2018-07-11T16:35:49.648Z,20.00
2018-07-11T16:38:18.166Z,20.00
2018-07-11T16:40:46.685Z,19.90
2018-07-11T16:43:15.299Z,19.50
2018-07-11T16:45:43.891Z,19.50
2018-07-11T16:48:12.395Z,19.50
2018-07-11T16:50:40.941Z,19.30
2018-07-11T16:53:09.479Z,19.40
2018-07-11T16:55:38.043Z,19.30
2018-07-11T16:58:06.594Z,19.40
2018-07-11T17:00:36.288Z,19.20
2018-07-11T17:03:09.663Z,19.30
2018-07-11T17:06:09.699Z,19.20
2018-07-11T17:08:43.711Z,19.20
2018-07-11T17:11:20.071Z,19.10
2018-07-11T17:14:00.538Z,19.00
2018-07-11T17:17:03.611Z,19.00
2018-07-11T17:19:47.888Z,19.00
2018-07-11T17:22:17.459Z,18.90
2018-07-11T17:24:46.890Z,18.80
2018-07-11T17:27:17.834Z,18.90
2018-07-11T17:29:46.347Z,18.90
2018-07-11T17:32:14.884Z,18.90
2018-07-11T17:34:43.598Z,18.90
2018-07-11T17:37:12.260Z,18.90
2018-07-11T17:39:51.167Z,18.80
2018-07-11T17:42:22.632Z,18.70
2018-07-11T17:45:01.083Z,18.60
2018-07-11T17:47:31.566Z,18.50
2018-07-11T17:50:05.180Z,18.30
2018-07-11T17:52:43.353Z,18.20
2018-07-11T17:55:14.123Z,18.10
2018-07-11T17:57:53.231Z,18.10
2018-07-11T18:00:58.893Z,18.00
2018-07-11T18:03:38.410Z,18.00
2018-07-11T18:06:22.754Z,18.00
2018-07-11T18:08:57.130Z,18.00
2018-07-11T18:11:35.223Z,17.90
2018-07-11T18:14:03.815Z,17.90
2018-07-11T18:16:41.729Z,17.80
2018-07-11T18:21:23.517Z,17.80
2018-07-11T18:26:11.024Z,17.70
2018-07-11T18:28:46.889Z,17.60
2018-07-11T18:32:27.699Z,17.40
2018-07-11T18:35:08.082Z,17.30
2018-07-11T18:37:47.785Z,17.10
2018-07-11T18:40:28.822Z,17.00
2018-07-11T18:43:08.587Z,16.80
2018-07-11T18:45:48.348Z,16.70
2018-07-11T18:50:31.952Z,16.60
2018-07-11T18:53:39.264Z,16.50
2018-07-11T18:56:19.599Z,16.40
2018-07-11T18:59:16.438Z,16.20
2018-07-11T19:01:59.914Z,16.20
2018-07-11T19:04:37.174Z,16.00
2018-07-11T19:07:16.639Z,16.00
2018-07-11T19:09:50.209Z,15.90
2018-07-11T19:12:26.408Z,15.80
2018-07-11T19:15:15.629Z,15.80
2018-07-11T19:18:04.904Z,15.70
2018-07-11T19:20:38.705Z,15.60
2018-07-11T19:23:15.961Z,15.60
2018-07-11T19:25:58.758Z,15.40
2018-07-11T19:28:40.844Z,15.30
2018-07-11T19:31:19.384Z,15.30
2018-07-11T19:34:58.694Z,15.20
2018-07-11T19:37:41.288Z,15.10
2018-07-11T19:40:47.877Z,15.00
2018-07-11T19:45:28.003Z,14.90
2018-07-11T19:50:11.719Z,14.70
2018-07-11T19:52:52.899Z,14.60
2018-07-11T19:56:40.064Z,14.50
2018-07-11T19:59:08.701Z,14.40
2018-07-11T20:01:37.240Z,14.20
2018-07-11T20:04:05.755Z,14.10
2018-07-11T20:06:34.298Z,14.10
2018-07-11T20:09:02.823Z,14.00
2018-07-11T20:11:31.327Z,14.00
2018-07-11T20:13:59.866Z,13.90
2018-07-11T20:16:28.551Z,13.90
2018-07-11T20:18:58.047Z,13.80
2018-07-11T20:21:26.665Z,13.70
2018-07-11T20:23:55.234Z,13.60
2018-07-11T20:26:23.698Z,13.60
2018-07-11T20:28:52.358Z,13.60
2018-07-11T20:33:49.069Z,13.50
2018-07-11T20:36:17.564Z,13.40
2018-07-11T20:38:46.047Z,13.40
2018-07-11T20:41:14.711Z,13.40
2018-07-11T20:43:43.279Z,13.40
2018-07-11T20:46:12.108Z,13.40
2018-07-11T20:48:41.006Z,13.40
2018-07-11T20:51:09.596Z,13.40
2018-07-11T20:53:38.209Z,13.40
2018-07-11T20:56:06.734Z,13.40
2018-07-11T20:58:46.373Z,13.40
2018-07-11T21:01:26.154Z,13.40
2018-07-11T21:04:39.553Z,13.40
2018-07-11T21:07:55.848Z,13.40
2018-07-11T21:10:41.230Z,13.40
2018-07-11T21:13:17.299Z,13.40
2018-07-11T21:15:56.203Z,13.40
2018-07-11T21:19:02.042Z,13.40
2018-07-11T21:21:31.414Z,13.40
2018-07-11T21:23:59.919Z,13.40
2018-07-11T21:26:28.421Z,13.50
2018-07-11T21:28:56.981Z,13.50
2018-07-11T21:31:25.460Z,13.50
2018-07-11T21:33:53.936Z,13.50
2018-07-11T21:36:22.455Z,13.50
2018-07-11T21:38:51.232Z,13.50
2018-07-11T21:41:19.843Z,13.50
2018-07-11T21:43:48.306Z,13.50
2018-07-11T21:46:16.826Z,13.50
2018-07-11T21:48:45.609Z,13.50
2018-07-11T21:51:14.238Z,13.50
2018-07-11T21:53:42.702Z,13.40
2018-07-11T21:56:11.191Z,13.40
2018-07-11T21:58:39.842Z,13.30
2018-07-11T22:01:12.361Z,13.20
2018-07-11T22:03:40.895Z,13.20
2018-07-11T22:06:09.421Z,13.10
2018-07-11T22:08:37.895Z,13.00
2018-07-11T22:11:06.753Z,13.00
2018-07-11T22:16:03.386Z,12.90
2018-07-11T22:18:37.246Z,12.80
2018-07-11T22:21:05.599Z,12.80
2018-07-11T22:23:32.933Z,12.70
2018-07-11T22:26:00.674Z,12.70
2018-07-11T22:28:28.031Z,12.60
2018-07-11T22:30:55.379Z,12.50
2018-07-11T22:33:22.711Z,12.50
2018-07-11T22:35:50.079Z,12.40
2018-07-11T22:38:17.428Z,12.30
2018-07-11T22:40:45.268Z,12.30
2018-07-11T22:43:12.602Z,12.20
2018-07-11T22:45:39.979Z,12.20
2018-07-11T22:48:07.306Z,12.00
2018-07-11T22:50:34.690Z,12.00
2018-07-11T22:53:02.035Z,11.90
2018-07-11T22:55:29.404Z,11.80
2018-07-11T22:57:56.747Z,11.70
2018-07-11T23:00:24.127Z,11.60
2018-07-11T23:02:51.464Z,11.60
2018-07-11T23:05:18.818Z,11.50
2018-07-11T23:07:46.214Z,11.40
2018-07-11T23:10:13.546Z,11.40
2018-07-11T23:12:40.895Z,11.30
2018-07-11T23:15:08.240Z,11.30
2018-07-11T23:17:35.635Z,11.30
2018-07-11T23:20:03.045Z,11.30
2018-07-11T23:22:30.466Z,11.30
2018-07-11T23:24:57.870Z,11.30
2018-07-11T23:27:25.244Z,11.40
2018-07-11T23:29:52.583Z,11.40
2018-07-11T23:32:19.939Z,11.40
2018-07-11T23:34:47.327Z,11.50
2018-07-11T23:37:14.703Z,11.50
2018-07-11T23:39:42.093Z,11.50
2018-07-11T23:42:09.454Z,11.50
2018-07-11T23:44:36.842Z,11.50
2018-07-11T23:47:04.214Z,11.60
2018-07-11T23:49:31.553Z,11.60
2018-07-11T23:51:58.912Z,11.70
2018-07-11T23:54:26.249Z,11.80
2018-07-11T23:56:53.649Z,11.80
2018-07-11T23:59:20.990Z,11.90
